sensor_id;sensor_type;location;lat;lon;timestamp;temperature;humidity
80258;DHT22;69565;37.974;23.708;2023-06-22T00:00:55;28.00;30.60
80258;DHT22;69565;37.974;23.708;2023-06-22T00:03:23;28.00;30.60
80258;DHT22;69565;37.974;23.708;2023-06-22T00:05:50;28.00;30.60
80258;DHT22;69565;37.974;23.708;2023-06-22T00:08:16;28.00;30.50
80258;DHT22;69565;37.974;23.708;2023-06-22T00:10:42;28.00;30.50
80258;DHT22;69565;37.974;23.708;2023-06-22T00:13:08;27.90;30.30
80258;DHT22;69565;37.974;23.708;2023-06-22T00:15:35;27.90;30.30
80258;DHT22;69565;37.974;23.708;2023-06-22T00:18:01;28.00;30.40
80258;DHT22;69565;37.974;23.708;2023-06-22T00:20:28;27.90;30.30
80258;DHT22;69565;37.974;23.708;2023-06-22T00:22:58;27.90;30.30
80258;DHT22;69565;37.974;23.708;2023-06-22T00:25:24;27.90;30.40
80258;DHT22;69565;37.974;23.708;2023-06-22T00:27:50;27.90;30.40
80258;DHT22;69565;37.974;23.708;2023-06-22T00:30:17;27.90;30.40
80258;DHT22;69565;37.974;23.708;2023-06-22T00:32:43;27.90;30.40
80258;DHT22;69565;37.974;23.708;2023-06-22T00:35:10;27.90;30.30
80258;DHT22;69565;37.974;23.708;2023-06-22T00:37:39;27.90;30.30
80258;DHT22;69565;37.974;23.708;2023-06-22T00:40:08;27.80;30.20
80258;DHT22;69565;37.974;23.708;2023-06-22T00:42:37;27.90;30.20
80258;DHT22;69565;37.974;23.708;2023-06-22T00:45:03;27.80;30.10
80258;DHT22;69565;37.974;23.708;2023-06-22T00:47:29;27.80;30.20
80258;DHT22;69565;37.974;23.708;2023-06-22T00:49:55;27.80;30.30
80258;DHT22;69565;37.974;23.708;2023-06-22T00:52:22;27.80;30.40
80258;DHT22;69565;37.974;23.708;2023-06-22T00:54:52;27.80;30.30
80258;DHT22;69565;37.974;23.708;2023-06-22T00:57:19;27.80;30.30
80258;DHT22;69565;37.974;23.708;2023-06-22T00:59:46;27.70;30.50
80258;DHT22;69565;37.974;23.708;2023-06-22T01:02:13;27.70;30.50
80258;DHT22;69565;37.974;23.708;2023-06-22T01:04:39;27.70;31.30
80258;DHT22;69565;37.974;23.708;2023-06-22T01:10:16;27.80;30.60
80258;DHT22;69565;37.974;23.708;2023-06-22T01:12:52;27.80;30.60
80258;DHT22;69565;37.974;23.708;2023-06-22T01:15:26;27.80;30.70
80258;DHT22;69565;37.974;23.708;2023-06-22T01:17:53;27.70;30.70
80258;DHT22;69565;37.974;23.708;2023-06-22T01:20:22;27.70;30.90
80258;DHT22;69565;37.974;23.708;2023-06-22T01:23:09;27.70;31.00
80258;DHT22;69565;37.974;23.708;2023-06-22T01:26:17;27.70;31.10
80258;DHT22;69565;37.974;23.708;2023-06-22T01:28:52;27.70;31.20
80258;DHT22;69565;37.974;23.708;2023-06-22T01:31:20;27.70;31.40
80258;DHT22;69565;37.974;23.708;2023-06-22T01:33:54;27.70;31.40
80258;DHT22;69565;37.974;23.708;2023-06-22T01:36:22;27.70;31.60
80258;DHT22;69565;37.974;23.708;2023-06-22T01:38:49;27.70;31.60
80258;DHT22;69565;37.974;23.708;2023-06-22T01:41:20;27.70;31.60
80258;DHT22;69565;37.974;23.708;2023-06-22T01:43:47;27.70;31.70
80258;DHT22;69565;37.974;23.708;2023-06-22T01:46:14;27.70;31.90
80258;DHT22;69565;37.974;23.708;2023-06-22T01:48:40;27.60;32.10
80258;DHT22;69565;37.974;23.708;2023-06-22T01:51:06;27.70;32.30
80258;DHT22;69565;37.974;23.708;2023-06-22T01:53:32;27.60;32.40
80258;DHT22;69565;37.974;23.708;2023-06-22T01:55:58;27.70;32.50
80258;DHT22;69565;37.974;23.708;2023-06-22T01:58:27;27.60;32.50
80258;DHT22;69565;37.974;23.708;2023-06-22T02:01:00;27.60;32.60
80258;DHT22;69565;37.974;23.708;2023-06-22T02:03:35;27.60;32.80
80258;DHT22;69565;37.974;23.708;2023-06-22T02:06:16;27.60;33.00
80258;DHT22;69565;37.974;23.708;2023-06-22T02:08:53;27.60;33.00
80258;DHT22;69565;37.974;23.708;2023-06-22T02:11:21;27.60;33.10
80258;DHT22;69565;37.974;23.708;2023-06-22T02:13:48;27.60;33.10
80258;DHT22;69565;37.974;23.708;2023-06-22T02:16:14;27.60;33.10
80258;DHT22;69565;37.974;23.708;2023-06-22T02:18:51;27.60;33.10
80258;DHT22;69565;37.974;23.708;2023-06-22T02:21:20;27.60;33.00
80258;DHT22;69565;37.974;23.708;2023-06-22T02:23:46;27.60;33.00
80258;DHT22;69565;37.974;23.708;2023-06-22T02:26:13;27.60;32.90
80258;DHT22;69565;37.974;23.708;2023-06-22T02:28:39;27.60;32.80
80258;DHT22;69565;37.974;23.708;2023-06-22T02:31:05;27.60;33.70
80258;DHT22;69565;37.974;23.708;2023-06-22T02:33:30;27.60;32.70
80258;DHT22;69565;37.974;23.708;2023-06-22T02:35:56;27.60;32.70
80258;DHT22;69565;37.974;23.708;2023-06-22T02:38:22;27.60;32.70
80258;DHT22;69565;37.974;23.708;2023-06-22T02:40:50;27.60;32.80
80258;DHT22;69565;37.974;23.708;2023-06-22T02:43:16;27.60;32.90
80258;DHT22;69565;37.974;23.708;2023-06-22T02:45:42;27.60;32.90
80258;DHT22;69565;37.974;23.708;2023-06-22T02:48:08;27.50;32.90
80258;DHT22;69565;37.974;23.708;2023-06-22T02:50:33;27.50;33.00
80258;DHT22;69565;37.974;23.708;2023-06-22T02:52:59;27.50;33.10
80258;DHT22;69565;37.974;23.708;2023-06-22T02:55:25;27.50;33.10
80258;DHT22;69565;37.974;23.708;2023-06-22T02:57:50;27.50;33.20
80258;DHT22;69565;37.974;23.708;2023-06-22T03:00:18;27.50;33.20
80258;DHT22;69565;37.974;23.708;2023-06-22T03:02:49;27.60;33.40
80258;DHT22;69565;37.974;23.708;2023-06-22T03:05:15;27.60;33.40
80258;DHT22;69565;37.974;23.708;2023-06-22T03:07:44;27.50;33.30
80258;DHT22;69565;37.974;23.708;2023-06-22T03:10:12;27.50;33.30
80258;DHT22;69565;37.974;23.708;2023-06-22T03:12:38;27.60;33.20
80258;DHT22;69565;37.974;23.708;2023-06-22T03:15:09;27.60;32.90
80258;DHT22;69565;37.974;23.708;2023-06-22T03:17:36;27.60;32.70
80258;DHT22;69565;37.974;23.708;2023-06-22T03:20:03;27.60;32.60
80258;DHT22;69565;37.974;23.708;2023-06-22T03:22:37;27.60;32.60
80258;DHT22;69565;37.974;23.708;2023-06-22T03:25:02;27.50;32.50
80258;DHT22;69565;37.974;23.708;2023-06-22T03:27:28;27.50;32.60
80258;DHT22;69565;37.974;23.708;2023-06-22T03:29:54;27.50;32.70
80258;DHT22;69565;37.974;23.708;2023-06-22T03:32:20;27.60;32.80
80258;DHT22;69565;37.974;23.708;2023-06-22T03:34:46;27.60;33.00
80258;DHT22;69565;37.974;23.708;2023-06-22T03:37:16;27.60;33.10
80258;DHT22;69565;37.974;23.708;2023-06-22T03:39:42;27.60;33.10
80258;DHT22;69565;37.974;23.708;2023-06-22T03:42:07;27.60;33.20
80258;DHT22;69565;37.974;23.708;2023-06-22T03:44:34;27.60;33.20
80258;DHT22;69565;37.974;23.708;2023-06-22T03:47:03;27.70;33.30
80258;DHT22;69565;37.974;23.708;2023-06-22T03:49:29;27.70;33.30
80258;DHT22;69565;37.974;23.708;2023-06-22T03:51:55;27.70;33.30
80258;DHT22;69565;37.974;23.708;2023-06-22T03:54:20;27.80;33.40
80258;DHT22;69565;37.974;23.708;2023-06-22T03:56:46;27.80;33.30
80258;DHT22;69565;37.974;23.708;2023-06-22T03:59:12;27.80;33.20
80258;DHT22;69565;37.974;23.708;2023-06-22T04:01:38;27.80;33.10
80258;DHT22;69565;37.974;23.708;2023-06-22T04:04:03;27.90;33.00
80258;DHT22;69565;37.974;23.708;2023-06-22T04:06:29;27.90;32.90
80258;DHT22;69565;37.974;23.708;2023-06-22T04:08:55;27.90;32.90
80258;DHT22;69565;37.974;23.708;2023-06-22T04:11:22;28.00;33.50
80258;DHT22;69565;37.974;23.708;2023-06-22T04:13:47;28.00;33.60
80258;DHT22;69565;37.974;23.708;2023-06-22T04:16:15;28.10;33.50
80258;DHT22;69565;37.974;23.708;2023-06-22T04:18:41;28.20;33.40
80258;DHT22;69565;37.974;23.708;2023-06-22T04:21:07;28.20;33.30
80258;DHT22;69565;37.974;23.708;2023-06-22T04:23:33;28.30;33.40
80258;DHT22;69565;37.974;23.708;2023-06-22T04:25:58;28.30;33.50
80258;DHT22;69565;37.974;23.708;2023-06-22T04:28:27;28.40;33.50
80258;DHT22;69565;37.974;23.708;2023-06-22T04:30:53;28.40;33.40
80258;DHT22;69565;37.974;23.708;2023-06-22T04:33:23;28.50;33.40
80258;DHT22;69565;37.974;23.708;2023-06-22T04:35:49;28.50;33.30
80258;DHT22;69565;37.974;23.708;2023-06-22T04:38:16;28.50;33.30
80258;DHT22;69565;37.974;23.708;2023-06-22T04:40:42;28.60;33.30
80258;DHT22;69565;37.974;23.708;2023-06-22T04:43:08;28.70;33.40
80258;DHT22;69565;37.974;23.708;2023-06-22T04:45:35;28.70;33.30
80258;DHT22;69565;37.974;23.708;2023-06-22T04:48:04;28.80;33.40
80258;DHT22;69565;37.974;23.708;2023-06-22T04:50:30;28.80;33.30
80258;DHT22;69565;37.974;23.708;2023-06-22T04:52:55;28.90;33.40
80258;DHT22;69565;37.974;23.708;2023-06-22T04:55:21;29.00;33.40
80258;DHT22;69565;37.974;23.708;2023-06-22T04:57:48;29.00;33.20
80258;DHT22;69565;37.974;23.708;2023-06-22T05:00:18;29.10;33.10
80258;DHT22;69565;37.974;23.708;2023-06-22T05:02:45;29.20;33.10
80258;DHT22;69565;37.974;23.708;2023-06-22T05:05:12;29.20;32.90
80258;DHT22;69565;37.974;23.708;2023-06-22T05:07:45;29.30;32.80
80258;DHT22;69565;37.974;23.708;2023-06-22T05:10:14;29.40;32.70
80258;DHT22;69565;37.974;23.708;2023-06-22T05:12:41;29.40;32.50
80258;DHT22;69565;37.974;23.708;2023-06-22T05:15:10;29.50;32.30
80258;DHT22;69565;37.974;23.708;2023-06-22T05:17:36;29.60;32.10
80258;DHT22;69565;37.974;23.708;2023-06-22T05:20:09;29.70;31.90
80258;DHT22;69565;37.974;23.708;2023-06-22T05:22:35;29.80;31.90
80258;DHT22;69565;37.974;23.708;2023-06-22T05:25:00;29.80;31.60
80258;DHT22;69565;37.974;23.708;2023-06-22T05:27:26;29.90;31.60
80258;DHT22;69565;37.974;23.708;2023-06-22T05:29:52;30.00;31.40
80258;DHT22;69565;37.974;23.708;2023-06-22T05:32:18;30.10;31.20
80258;DHT22;69565;37.974;23.708;2023-06-22T05:34:44;30.10;31.00
80258;DHT22;69565;37.974;23.708;2023-06-22T05:37:10;30.20;30.90
80258;DHT22;69565;37.974;23.708;2023-06-22T05:39:36;30.30;30.80
80258;DHT22;69565;37.974;23.708;2023-06-22T05:42:05;30.30;30.60
80258;DHT22;69565;37.974;23.708;2023-06-22T05:44:32;30.30;30.50
80258;DHT22;69565;37.974;23.708;2023-06-22T05:46:59;30.50;30.50
80258;DHT22;69565;37.974;23.708;2023-06-22T05:49:24;30.50;30.40
80258;DHT22;69565;37.974;23.708;2023-06-22T05:51:55;30.50;30.30
80258;DHT22;69565;37.974;23.708;2023-06-22T05:54:22;30.60;30.20
80258;DHT22;69565;37.974;23.708;2023-06-22T05:56:48;30.60;30.10
80258;DHT22;69565;37.974;23.708;2023-06-22T05:59:13;30.70;30.00
80258;DHT22;69565;37.974;23.708;2023-06-22T06:01:39;30.80;29.90
80258;DHT22;69565;37.974;23.708;2023-06-22T06:04:06;30.80;29.80
80258;DHT22;69565;37.974;23.708;2023-06-22T06:06:34;30.90;29.70
80258;DHT22;69565;37.974;23.708;2023-06-22T06:09:05;31.00;29.70
80258;DHT22;69565;37.974;23.708;2023-06-22T06:11:30;31.00;29.50
80258;DHT22;69565;37.974;23.708;2023-06-22T06:13:56;31.10;29.50
80258;DHT22;69565;37.974;23.708;2023-06-22T06:16:23;31.20;29.40
80258;DHT22;69565;37.974;23.708;2023-06-22T06:18:48;31.30;29.30
80258;DHT22;69565;37.974;23.708;2023-06-22T06:21:16;31.40;29.30
80258;DHT22;69565;37.974;23.708;2023-06-22T06:23:42;31.40;29.20
80258;DHT22;69565;37.974;23.708;2023-06-22T06:26:08;31.50;29.30
80258;DHT22;69565;37.974;23.708;2023-06-22T06:28:35;31.50;29.10
80258;DHT22;69565;37.974;23.708;2023-06-22T06:31:01;31.60;29.10
80258;DHT22;69565;37.974;23.708;2023-06-22T06:33:26;31.70;29.10
80258;DHT22;69565;37.974;23.708;2023-06-22T06:35:52;31.70;29.00
80258;DHT22;69565;37.974;23.708;2023-06-22T06:38:18;31.80;28.90
80258;DHT22;69565;37.974;23.708;2023-06-22T06:40:44;31.90;28.90
80258;DHT22;69565;37.974;23.708;2023-06-22T06:43:10;32.00;28.90
80258;DHT22;69565;37.974;23.708;2023-06-22T06:45:36;32.00;28.80
80258;DHT22;69565;37.974;23.708;2023-06-22T06:48:02;32.10;28.80
80258;DHT22;69565;37.974;23.708;2023-06-22T06:50:28;32.20;28.70
80258;DHT22;69565;37.974;23.708;2023-06-22T06:52:53;32.20;28.70
80258;DHT22;69565;37.974;23.708;2023-06-22T06:55:20;32.30;28.60
80258;DHT22;69565;37.974;23.708;2023-06-22T06:57:46;32.40;28.60
80258;DHT22;69565;37.974;23.708;2023-06-22T07:00:14;32.50;28.50
80258;DHT22;69565;37.974;23.708;2023-06-22T07:02:42;32.60;28.50
80258;DHT22;69565;37.974;23.708;2023-06-22T07:05:08;32.60;28.40
80258;DHT22;69565;37.974;23.708;2023-06-22T07:07:34;32.70;28.40
80258;DHT22;69565;37.974;23.708;2023-06-22T07:10:00;32.80;28.40
80258;DHT22;69565;37.974;23.708;2023-06-22T07:12:26;32.80;28.30
80258;DHT22;69565;37.974;23.708;2023-06-22T07:14:52;32.90;28.30
80258;DHT22;69565;37.974;23.708;2023-06-22T07:17:18;33.00;28.20
80258;DHT22;69565;37.974;23.708;2023-06-22T07:19:44;33.10;28.00
80258;DHT22;69565;37.974;23.708;2023-06-22T07:22:10;33.20;27.90
80258;DHT22;69565;37.974;23.708;2023-06-22T07:24:35;33.30;28.00
80258;DHT22;69565;37.974;23.708;2023-06-22T07:27:02;33.40;28.00
80258;DHT22;69565;37.974;23.708;2023-06-22T07:29:29;33.40;28.00
80258;DHT22;69565;37.974;23.708;2023-06-22T07:31:55;33.50;27.80
80258;DHT22;69565;37.974;23.708;2023-06-22T07:34:22;33.50;27.70
80258;DHT22;69565;37.974;23.708;2023-06-22T07:36:48;33.60;27.70
80258;DHT22;69565;37.974;23.708;2023-06-22T07:39:13;33.60;27.60
80258;DHT22;69565;37.974;23.708;2023-06-22T07:41:40;33.60;27.60
80258;DHT22;69565;37.974;23.708;2023-06-22T07:44:09;33.60;27.60
80258;DHT22;69565;37.974;23.708;2023-06-22T07:46:34;33.60;27.60
80258;DHT22;69565;37.974;23.708;2023-06-22T07:49:01;33.50;27.80
80258;DHT22;69565;37.974;23.708;2023-06-22T07:51:27;33.30;28.00
80258;DHT22;69565;37.974;23.708;2023-06-22T07:53:53;33.10;28.30
80258;DHT22;69565;37.974;23.708;2023-06-22T07:56:19;32.90;28.60
80258;DHT22;69565;37.974;23.708;2023-06-22T07:58:46;32.80;28.90
80258;DHT22;69565;37.974;23.708;2023-06-22T08:01:15;32.70;29.10
80258;DHT22;69565;37.974;23.708;2023-06-22T08:03:42;32.60;29.10
80258;DHT22;69565;37.974;23.708;2023-06-22T08:06:08;32.50;29.10
80258;DHT22;69565;37.974;23.708;2023-06-22T08:08:35;32.50;29.20
80258;DHT22;69565;37.974;23.708;2023-06-22T08:11:01;32.50;29.30
80258;DHT22;69565;37.974;23.708;2023-06-22T08:13:27;32.40;29.30
80258;DHT22;69565;37.974;23.708;2023-06-22T08:15:52;32.40;29.30
80258;DHT22;69565;37.974;23.708;2023-06-22T08:18:18;32.30;29.20
80258;DHT22;69565;37.974;23.708;2023-06-22T08:20:44;32.30;29.30
80258;DHT22;69565;37.974;23.708;2023-06-22T08:23:09;32.30;29.40
80258;DHT22;69565;37.974;23.708;2023-06-22T08:25:35;32.20;29.40
80258;DHT22;69565;37.974;23.708;2023-06-22T08:28:02;32.20;29.40
80258;DHT22;69565;37.974;23.708;2023-06-22T08:30:28;32.20;29.40
80258;DHT22;69565;37.974;23.708;2023-06-22T08:32:54;32.20;29.50
80258;DHT22;69565;37.974;23.708;2023-06-22T08:35:24;32.20;29.60
80258;DHT22;69565;37.974;23.708;2023-06-22T08:37:49;32.10;29.60
80258;DHT22;69565;37.974;23.708;2023-06-22T08:40:18;32.10;29.50
80258;DHT22;69565;37.974;23.708;2023-06-22T08:42:45;32.00;29.70
80258;DHT22;69565;37.974;23.708;2023-06-22T08:45:12;32.00;29.60
80258;DHT22;69565;37.974;23.708;2023-06-22T08:47:38;32.00;29.60
80258;DHT22;69565;37.974;23.708;2023-06-22T08:50:05;32.00;29.70
80258;DHT22;69565;37.974;23.708;2023-06-22T08:52:32;32.00;29.60
80258;DHT22;69565;37.974;23.708;2023-06-22T08:54:57;31.90;29.60
80258;DHT22;69565;37.974;23.708;2023-06-22T08:57:27;31.90;29.70
80258;DHT22;69565;37.974;23.708;2023-06-22T08:59:53;31.80;29.70
80258;DHT22;69565;37.974;23.708;2023-06-22T09:02:19;31.80;29.80
80258;DHT22;69565;37.974;23.708;2023-06-22T09:04:48;31.80;29.80
80258;DHT22;69565;37.974;23.708;2023-06-22T09:07:14;31.80;29.80
80258;DHT22;69565;37.974;23.708;2023-06-22T09:09:40;31.80;29.90
80258;DHT22;69565;37.974;23.708;2023-06-22T09:12:06;31.80;30.00
80258;DHT22;69565;37.974;23.708;2023-06-22T09:14:31;31.80;30.00
80258;DHT22;69565;37.974;23.708;2023-06-22T09:16:57;31.80;30.00
80258;DHT22;69565;37.974;23.708;2023-06-22T09:19:23;31.70;30.00
80258;DHT22;69565;37.974;23.708;2023-06-22T09:21:49;31.70;30.00
80258;DHT22;69565;37.974;23.708;2023-06-22T09:24:14;31.70;30.00
80258;DHT22;69565;37.974;23.708;2023-06-22T09:26:40;31.70;30.00
80258;DHT22;69565;37.974;23.708;2023-06-22T09:29:06;31.80;30.00
80258;DHT22;69565;37.974;23.708;2023-06-22T09:31:32;31.80;30.00
80258;DHT22;69565;37.974;23.708;2023-06-22T09:33:58;31.80;30.00
80258;DHT22;69565;37.974;23.708;2023-06-22T09:36:23;31.80;29.90
80258;DHT22;69565;37.974;23.708;2023-06-22T09:38:49;31.80;29.90
80258;DHT22;69565;37.974;23.708;2023-06-22T09:41:24;31.80;29.80
80258;DHT22;69565;37.974;23.708;2023-06-22T09:43:50;31.80;29.90
80258;DHT22;69565;37.974;23.708;2023-06-22T09:46:17;31.80;29.80
80258;DHT22;69565;37.974;23.708;2023-06-22T09:48:43;31.80;29.80
80258;DHT22;69565;37.974;23.708;2023-06-22T09:51:08;31.70;29.80
80258;DHT22;69565;37.974;23.708;2023-06-22T09:53:34;31.70;29.80
80258;DHT22;69565;37.974;23.708;2023-06-22T09:56:03;31.70;29.70
80258;DHT22;69565;37.974;23.708;2023-06-22T09:58:29;31.70;29.70
80258;DHT22;69565;37.974;23.708;2023-06-22T10:00:55;31.70;29.60
80258;DHT22;69565;37.974;23.708;2023-06-22T10:03:21;31.80;29.60
80258;DHT22;69565;37.974;23.708;2023-06-22T10:05:47;31.70;29.60
80258;DHT22;69565;37.974;23.708;2023-06-22T10:08:12;31.70;29.60
80258;DHT22;69565;37.974;23.708;2023-06-22T10:10:38;31.80;29.70
80258;DHT22;69565;37.974;23.708;2023-06-22T10:13:10;31.80;29.60
80258;DHT22;69565;37.974;23.708;2023-06-22T10:15:36;31.80;29.60
80258;DHT22;69565;37.974;23.708;2023-06-22T10:18:02;31.70;29.60
80258;DHT22;69565;37.974;23.708;2023-06-22T10:20:28;31.80;29.70
80258;DHT22;69565;37.974;23.708;2023-06-22T10:22:54;31.70;29.60
80258;DHT22;69565;37.974;23.708;2023-06-22T10:25:21;31.70;29.60
80258;DHT22;69565;37.974;23.708;2023-06-22T10:27:47;31.70;29.60
80258;DHT22;69565;37.974;23.708;2023-06-22T10:30:13;31.80;29.40
80258;DHT22;69565;37.974;23.708;2023-06-22T10:32:40;31.70;29.60
80258;DHT22;69565;37.974;23.708;2023-06-22T10:35:06;31.70;29.70
80258;DHT22;69565;37.974;23.708;2023-06-22T10:37:32;31.70;29.80
80258;DHT22;69565;37.974;23.708;2023-06-22T10:39:58;31.70;29.90
80258;DHT22;69565;37.974;23.708;2023-06-22T10:42:23;31.70;30.00
80258;DHT22;69565;37.974;23.708;2023-06-22T10:44:49;31.70;30.00
80258;DHT22;69565;37.974;23.708;2023-06-22T10:47:15;31.70;30.00
80258;DHT22;69565;37.974;23.708;2023-06-22T10:49:41;31.70;30.00
80258;DHT22;69565;37.974;23.708;2023-06-22T10:52:08;31.70;30.00
80258;DHT22;69565;37.974;23.708;2023-06-22T10:54:35;31.70;30.10
80258;DHT22;69565;37.974;23.708;2023-06-22T10:57:01;31.70;30.20
80258;DHT22;69565;37.974;23.708;2023-06-22T10:59:27;31.70;30.40
80258;DHT22;69565;37.974;23.708;2023-06-22T11:01:55;31.60;30.30
80258;DHT22;69565;37.974;23.708;2023-06-22T11:04:20;31.60;30.40
80258;DHT22;69565;37.974;23.708;2023-06-22T11:06:47;31.60;30.30
80258;DHT22;69565;37.974;23.708;2023-06-22T11:09:13;31.60;30.20
80258;DHT22;69565;37.974;23.708;2023-06-22T11:11:44;31.60;30.20
80258;DHT22;69565;37.974;23.708;2023-06-22T11:14:10;31.50;30.20
80258;DHT22;69565;37.974;23.708;2023-06-22T11:16:35;31.60;30.20
80258;DHT22;69565;37.974;23.708;2023-06-22T11:19:01;31.60;31.20
80258;DHT22;69565;37.974;23.708;2023-06-22T11:21:28;31.60;30.10
80258;DHT22;69565;37.974;23.708;2023-06-22T11:23:54;31.50;30.10
80258;DHT22;69565;37.974;23.708;2023-06-22T11:26:20;31.60;30.20
80258;DHT22;69565;37.974;23.708;2023-06-22T11:28:46;31.60;30.10
80258;DHT22;69565;37.974;23.708;2023-06-22T11:31:12;31.60;30.10
80258;DHT22;69565;37.974;23.708;2023-06-22T11:33:38;31.60;30.10
80258;DHT22;69565;37.974;23.708;2023-06-22T11:36:05;31.60;30.20
80258;DHT22;69565;37.974;23.708;2023-06-22T11:38:30;31.50;30.10
80258;DHT22;69565;37.974;23.708;2023-06-22T11:40:58;31.50;30.10
80258;DHT22;69565;37.974;23.708;2023-06-22T11:43:24;31.50;30.40
80258;DHT22;69565;37.974;23.708;2023-06-22T11:45:49;31.50;31.00
80258;DHT22;69565;37.974;23.708;2023-06-22T11:48:16;31.50;31.00
80258;DHT22;69565;37.974;23.708;2023-06-22T11:50:41;31.50;30.70
80258;DHT22;69565;37.974;23.708;2023-06-22T11:53:07;31.50;30.50
80258;DHT22;69565;37.974;23.708;2023-06-22T11:55:33;31.50;30.50
80258;DHT22;69565;37.974;23.708;2023-06-22T11:57:58;31.50;30.50
80258;DHT22;69565;37.974;23.708;2023-06-22T12:00:26;31.50;30.30
80258;DHT22;69565;37.974;23.708;2023-06-22T12:02:52;31.50;30.10
80258;DHT22;69565;37.974;23.708;2023-06-22T12:05:19;31.60;30.00
80258;DHT22;69565;37.974;23.708;2023-06-22T12:07:49;31.60;30.00
80258;DHT22;69565;37.974;23.708;2023-06-22T12:10:15;31.60;30.00
80258;DHT22;69565;37.974;23.708;2023-06-22T12:12:41;31.60;30.00
80258;DHT22;69565;37.974;23.708;2023-06-22T12:15:08;31.60;30.10
80258;DHT22;69565;37.974;23.708;2023-06-22T12:17:35;31.60;30.20
80258;DHT22;69565;37.974;23.708;2023-06-22T12:20:00;31.50;30.20
80258;DHT22;69565;37.974;23.708;2023-06-22T12:22:27;31.50;30.20
80258;DHT22;69565;37.974;23.708;2023-06-22T12:24:53;31.60;30.20
80258;DHT22;69565;37.974;23.708;2023-06-22T12:27:18;31.60;30.10
80258;DHT22;69565;37.974;23.708;2023-06-22T12:29:47;31.60;30.00
80258;DHT22;69565;37.974;23.708;2023-06-22T12:32:13;31.50;30.00
80258;DHT22;69565;37.974;23.708;2023-06-22T12:34:41;31.50;30.00
80258;DHT22;69565;37.974;23.708;2023-06-22T12:37:06;31.50;30.00
80258;DHT22;69565;37.974;23.708;2023-06-22T12:39:32;31.60;30.00
80258;DHT22;69565;37.974;23.708;2023-06-22T12:41:58;31.50;30.00
80258;DHT22;69565;37.974;23.708;2023-06-22T12:44:24;31.50;30.00
80258;DHT22;69565;37.974;23.708;2023-06-22T12:46:49;31.50;30.00
80258;DHT22;69565;37.974;23.708;2023-06-22T12:49:15;31.60;30.10
80258;DHT22;69565;37.974;23.708;2023-06-22T12:51:42;31.60;30.10
80258;DHT22;69565;37.974;23.708;2023-06-22T12:54:08;31.60;30.20
80258;DHT22;69565;37.974;23.708;2023-06-22T12:56:34;31.60;30.30
80258;DHT22;69565;37.974;23.708;2023-06-22T12:59:00;31.50;30.20
80258;DHT22;69565;37.974;23.708;2023-06-22T13:01:28;31.50;30.40
80258;DHT22;69565;37.974;23.708;2023-06-22T13:03:56;31.60;30.50
80258;DHT22;69565;37.974;23.708;2023-06-22T13:06:22;31.60;30.50
80258;DHT22;69565;37.974;23.708;2023-06-22T13:08:47;31.60;30.50
80258;DHT22;69565;37.974;23.708;2023-06-22T13:11:13;31.50;30.50
80258;DHT22;69565;37.974;23.708;2023-06-22T13:13:39;31.50;30.60
80258;DHT22;69565;37.974;23.708;2023-06-22T13:16:05;31.50;30.60
80258;DHT22;69565;37.974;23.708;2023-06-22T13:18:31;31.50;30.50
80258;DHT22;69565;37.974;23.708;2023-06-22T13:20:57;31.50;30.40
80258;DHT22;69565;37.974;23.708;2023-06-22T13:23:23;31.50;30.40
80258;DHT22;69565;37.974;23.708;2023-06-22T13:25:49;31.50;30.40
80258;DHT22;69565;37.974;23.708;2023-06-22T13:28:15;31.50;30.40
80258;DHT22;69565;37.974;23.708;2023-06-22T13:30:42;31.50;30.30
80258;DHT22;69565;37.974;23.708;2023-06-22T13:33:09;31.50;30.40
80258;DHT22;69565;37.974;23.708;2023-06-22T13:35:35;31.50;30.40
80258;DHT22;69565;37.974;23.708;2023-06-22T13:38:01;31.50;30.40
80258;DHT22;69565;37.974;23.708;2023-06-22T13:40:27;31.50;30.20
80258;DHT22;69565;37.974;23.708;2023-06-22T13:42:52;31.50;30.20
80258;DHT22;69565;37.974;23.708;2023-06-22T13:45:18;31.50;30.20
80258;DHT22;69565;37.974;23.708;2023-06-22T13:47:45;31.50;31.30
80258;DHT22;69565;37.974;23.708;2023-06-22T13:50:11;31.50;30.30
80258;DHT22;69565;37.974;23.708;2023-06-22T13:52:38;31.50;30.40
80258;DHT22;69565;37.974;23.708;2023-06-22T13:55:05;31.50;30.30
80258;DHT22;69565;37.974;23.708;2023-06-22T13:57:31;31.50;30.50
80258;DHT22;69565;37.974;23.708;2023-06-22T13:59:56;31.40;30.40
80258;DHT22;69565;37.974;23.708;2023-06-22T14:02:22;31.40;30.40
80258;DHT22;69565;37.974;23.708;2023-06-22T14:04:48;31.40;30.40
80258;DHT22;69565;37.974;23.708;2023-06-22T14:07:13;31.40;30.30
80258;DHT22;69565;37.974;23.708;2023-06-22T14:09:39;31.40;30.40
80258;DHT22;69565;37.974;23.708;2023-06-22T14:12:06;31.40;30.30
80258;DHT22;69565;37.974;23.708;2023-06-22T14:14:33;31.40;30.10
80258;DHT22;69565;37.974;23.708;2023-06-22T14:16:59;31.30;30.00
80258;DHT22;69565;37.974;23.708;2023-06-22T14:19:25;31.40;30.00
80258;DHT22;69565;37.974;23.708;2023-06-22T14:21:51;31.40;29.90
80258;DHT22;69565;37.974;23.708;2023-06-22T14:24:17;31.40;29.90
80258;DHT22;69565;37.974;23.708;2023-06-22T14:26:43;31.40;29.90
80258;DHT22;69565;37.974;23.708;2023-06-22T14:29:09;31.40;29.90
80258;DHT22;69565;37.974;23.708;2023-06-22T14:31:34;31.40;30.00
80258;DHT22;69565;37.974;23.708;2023-06-22T14:34:00;31.30;30.00
80258;DHT22;69565;37.974;23.708;2023-06-22T14:36:28;31.30;30.00
80258;DHT22;69565;37.974;23.708;2023-06-22T14:38:53;31.20;30.00
80258;DHT22;69565;37.974;23.708;2023-06-22T14:41:19;31.30;30.00
80258;DHT22;69565;37.974;23.708;2023-06-22T14:43:49;31.20;30.00
80258;DHT22;69565;37.974;23.708;2023-06-22T14:46:17;31.20;30.00
80258;DHT22;69565;37.974;23.708;2023-06-22T14:48:43;31.20;30.10
80258;DHT22;69565;37.974;23.708;2023-06-22T14:51:09;31.20;30.20
80258;DHT22;69565;37.974;23.708;2023-06-22T14:53:35;31.20;30.40
80258;DHT22;69565;37.974;23.708;2023-06-22T14:56:01;31.20;30.50
80258;DHT22;69565;37.974;23.708;2023-06-22T14:58:28;31.10;30.60
80258;DHT22;69565;37.974;23.708;2023-06-22T15:00:55;31.10;30.70
80258;DHT22;69565;37.974;23.708;2023-06-22T15:03:21;31.10;30.80
80258;DHT22;69565;37.974;23.708;2023-06-22T15:05:51;31.10;30.80
80258;DHT22;69565;37.974;23.708;2023-06-22T15:08:16;31.10;30.80
80258;DHT22;69565;37.974;23.708;2023-06-22T15:10:42;31.10;30.80
80258;DHT22;69565;37.974;23.708;2023-06-22T15:13:08;31.10;30.80
80258;DHT22;69565;37.974;23.708;2023-06-22T15:15:33;31.10;30.80